Time;durP1;ratioP1;P1;durP2;ratioP2;P2;SDS_P1;SDS_P2;PMS_P1;PMS_P2;Temp;Humidity;BMP_temperature;BMP_pressure;BME280_temperature;BME280_humidity;BME280_pressure;Samples;Min_cycle;Max_cycle;Signal;HPM_P1;HPM_P2
2022/07/25 00:02:07;;;;;;;11.35;7.93;;;;;;;23.23;60.01;100998.44;5023230;28;20032;-56
2022/07/25 00:04:32;;;;;;;11.13;7.78;;;;;;;23.22;60.02;100993.25;5029122;28;20117;-56
2022/07/25 00:06:57;;;;;;;10.18;7.90;;;;;;;23.21;59.83;100995.16;5021160;28;20108;-58
2022/07/25 00:09:22;;;;;;;10.43;7.45;;;;;;;23.18;59.92;100990.25;5026742;28;20376;-57
2022/07/25 00:11:48;;;;;;;11.02;7.65;;;;;;;23.20;59.95;100982.69;5024675;28;20030;-57
2022/07/25 00:14:13;;;;;;;11.70;7.32;;;;;;;23.18;59.77;100985.63;5028157;28;20557;-58
2022/07/25 00:16:38;;;;;;;9.13;7.53;;;;;;;23.14;59.83;100976.38;5028987;28;20111;-57
2022/07/25 00:19:04;;;;;;;10.48;7.85;;;;;;;23.14;59.81;100980.97;5027120;28;20031;-58
2022/07/25 00:21:29;;;;;;;9.98;7.45;;;;;;;23.13;60.14;100971.19;5020531;28;20712;-58
2022/07/25 00:23:54;;;;;;;11.65;8.07;;;;;;;23.11;59.99;100974.13;5020059;28;20032;-58
2022/07/25 00:26:20;;;;;;;12.38;7.68;;;;;;;23.12;60.35;100972.25;5026221;28;20079;-58
2022/07/25 00:28:45;;;;;;;11.27;8.02;;;;;;;23.06;60.24;100962.41;5026115;28;20030;-58
2022/07/25 00:31:10;;;;;;;10.23;8.15;;;;;;;23.03;60.48;100965.63;5023900;28;20033;-57
2022/07/25 00:33:36;;;;;;;11.77;7.90;;;;;;;23.00;60.70;100958.81;5024657;28;20418;-58
2022/07/25 00:36:01;;;;;;;10.05;7.50;;;;;;;22.98;60.81;100955.56;5024055;28;20021;-57
2022/07/25 00:38:26;;;;;;;12.95;8.00;;;;;;;22.99;60.72;100962.59;5024157;28;20096;-57
2022/07/25 00:40:51;;;;;;;10.60;8.02;;;;;;;22.95;60.94;100950.63;5033300;28;20044;-58
2022/07/25 00:43:17;;;;;;;9.65;7.65;;;;;;;22.93;60.97;100946.53;5018883;28;20092;-57
2022/07/25 00:45:42;;;;;;;11.15;7.38;;;;;;;22.91;60.90;100943.25;5026722;28;20025;-57
2022/07/25 00:48:08;;;;;;;9.32;8.23;;;;;;;22.86;60.73;100935.91;5023336;28;20032;-57
2022/07/25 00:50:34;;;;;;;11.98;8.23;;;;;;;22.80;60.66;100924.13;5024986;28;20044;-57
2022/07/25 00:52:59;;;;;;;11.35;8.18;;;;;;;22.80;60.83;100931.41;5021120;28;20041;-57
2022/07/25 00:55:25;;;;;;;11.07;8.45;;;;;;;22.73;60.87;100933.50;5021459;28;20087;-57
2022/07/25 00:57:51;;;;;;;10.20;8.20;;;;;;;22.69;60.93;100926.94;5029134;28;20026;-57
2022/07/25 01:00:16;;;;;;;10.25;8.15;;;;;;;22.66;60.86;100922.03;5022556;28;20036;-57
2022/07/25 01:02:42;;;;;;;11.63;8.55;;;;;;;22.59;61.07;100921.38;5024918;28;20021;-57
2022/07/25 01:05:08;;;;;;;10.70;8.50;;;;;;;22.55;61.54;100921.03;5021120;28;20494;-57
2022/07/25 01:07:35;;;;;;;9.95;8.90;;;;;;;22.53;61.52;100924.00;5028801;28;20037;-57
2022/07/25 01:10:01;;;;;;;10.48;8.57;;;;;;;22.49;61.41;100912.03;5026847;28;20017;-57
2022/07/25 01:12:26;;;;;;;9.50;8.43;;;;;;;22.47;61.49;100914.16;5023972;28;20040;-57
2022/07/25 01:14:52;;;;;;;10.73;8.65;;;;;;;22.48;61.52;100914.97;5021215;28;20014;-58
2022/07/25 01:17:17;;;;;;;10.68;8.68;;;;;;;22.42;61.36;100902.44;5021702;28;20548;-57
2022/07/25 01:19:42;;;;;;;12.10;9.25;;;;;;;22.41;61.66;100907.03;5024589;28;20078;-57
2022/07/25 01:22:08;;;;;;;9.93;8.52;;;;;;;22.39;61.63;100900.22;5017485;28;20033;-57
2022/07/25 01:24:34;;;;;;;11.65;8.98;;;;;;;22.34;61.58;100905.56;5022234;28;20037;-57
2022/07/25 01:27:01;;;;;;;10.63;9.32;;;;;;;22.31;61.52;100900.66;5021925;28;20036;-57
2022/07/25 01:29:27;;;;;;;10.23;8.82;;;;;;;22.33;61.68;100901.22;5017737;28;20029;-57
2022/07/25 01:31:52;;;;;;;10.93;8.75;;;;;;;22.31;61.69;100898.78;5022892;28;20033;-57
2022/07/25 01:34:17;;;;;;;11.20;9.38;;;;;;;22.30;61.87;100899.00;5025010;28;20495;-58
2022/07/25 01:36:43;;;;;;;11.32;8.70;;;;;;;22.29;61.80;100897.38;5022980;28;20020;-56
2022/07/25 01:39:08;;;;;;;11.18;8.80;;;;;;;22.27;61.71;100886.00;5018449;28;20250;-56
2022/07/25 01:41:33;;;;;;;11.63;8.95;;;;;;;22.27;61.59;100891.41;5020824;28;20103;-57
2022/07/25 01:43:59;;;;;;;11.60;8.98;;;;;;;22.22;62.16;100873.16;5026671;28;20028;-56
2022/07/25 01:46:24;;;;;;;11.18;8.98;;;;;;;22.22;61.68;100874.00;5022388;28;20105;-58
2022/07/25 01:48:49;;;;;;;15.25;9.20;;;;;;;22.17;61.76;100871.22;5020609;28;20048;-57
2022/07/25 01:51:14;;;;;;;14.68;9.10;;;;;;;22.19;62.04;100873.66;5026012;28;20033;-56
2022/07/25 01:53:40;;;;;;;10.38;9.20;;;;;;;22.14;61.89;100865.47;5023389;28;20033;-57
2022/07/25 01:56:05;;;;;;;11.75;8.55;;;;;;;22.20;61.73;100872.59;5022817;28;20166;-57
2022/07/25 01:58:31;;;;;;;10.70;8.85;;;;;;;22.16;62.10;100861.47;5026140;28;20025;-57
2022/07/25 02:00:56;;;;;;;12.43;9.20;;;;;;;22.19;62.22;100860.13;5019532;28;20022;-57
2022/07/25 02:03:31;;;;;;;12.63;9.07;;;;;;;22.16;62.31;100858.75;5026876;28;20109;-57
2022/07/25 02:05:59;;;;;;;12.68;9.70;;;;;;;22.14;61.93;100863.59;5025357;28;20025;-57
2022/07/25 02:08:24;;;;;;;13.73;9.40;;;;;;;22.14;62.01;100849.25;5023266;28;20040;-58
2022/07/25 02:10:49;;;;;;;13.23;9.50;;;;;;;22.09;61.96;100843.75;5022918;28;20029;-56
2022/07/25 02:13:15;;;;;;;11.85;9.68;;;;;;;22.07;62.29;100844.00;5025713;28;20277;-57
2022/07/25 02:15:41;;;;;;;14.13;9.88;;;;;;;22.05;62.38;100850.72;5022260;28;20044;-58
2022/07/25 02:18:06;;;;;;;11.82;9.63;;;;;;;22.04;62.30;100849.09;5022281;28;20479;-57
2022/07/25 02:20:31;;;;;;;11.05;9.00;;;;;;;22.03;62.47;100850.13;5019854;28;20071;-57
2022/07/25 02:22:57;;;;;;;12.88;9.18;;;;;;;22.05;62.68;100845.31;5020702;28;20022;-57
2022/07/25 02:25:22;;;;;;;12.70;9.32;;;;;;;22.04;62.43;100840.97;5019781;28;20033;-57
2022/07/25 02:27:47;;;;;;;10.52;8.70;;;;;;;22.04;62.67;100849.09;5024313;28;20029;-57
2022/07/25 02:30:13;;;;;;;9.95;8.85;;;;;;;22.00;62.38;100837.91;5024203;28;20039;-58
2022/07/25 02:32:38;;;;;;;10.40;9.30;;;;;;;22.00;62.36;100839.81;5020971;28;20478;-57
2022/07/25 02:35:05;;;;;;;13.25;9.35;;;;;;;21.87;63.05;100817.41;5019256;28;20022;-58
2022/07/25 02:37:30;;;;;;;11.55;9.48;;;;;;;21.96;62.68;100831.34;5024512;28;20029;-57
2022/07/25 02:39:56;;;;;;;10.00;8.90;;;;;;;21.95;62.63;100825.13;5021878;28;20037;-57
2022/07/25 02:42:21;;;;;;;14.05;9.38;;;;;;;21.95;62.91;100827.81;5014399;28;20036;-56
2022/07/25 02:44:46;;;;;;;13.00;8.95;;;;;;;21.90;63.08;100816.94;5025515;28;20056;-58
2022/07/25 02:47:12;;;;;;;17.73;9.77;;;;;;;21.89;62.86;100823.41;5023393;28;20029;-58
2022/07/25 02:49:37;;;;;;;12.55;9.25;;;;;;;21.86;63.10;100814.97;5019556;28;20113;-57
2022/07/25 02:52:03;;;;;;;13.15;8.45;;;;;;;21.88;62.86;100808.25;5021823;28;20028;-57
2022/07/25 02:54:28;;;;;;;11.27;8.85;;;;;;;21.86;63.36;100815.78;5028084;28;20029;-56
2022/07/25 02:56:53;;;;;;;14.10;8.40;;;;;;;21.84;63.16;100809.81;5028389;28;20466;-57
2022/07/25 02:59:18;;;;;;;10.88;8.45;;;;;;;21.81;63.38;100799.47;5027412;28;20113;-57
2022/07/25 03:01:44;;;;;;;14.25;9.00;;;;;;;21.86;63.08;100815.78;5023268;28;20034;-57
2022/07/25 03:04:09;;;;;;;11.80;9.00;;;;;;;21.86;62.99;100810.38;5025096;28;20501;-57
2022/07/25 03:06:34;;;;;;;10.65;8.65;;;;;;;21.87;63.04;100811.19;5024198;28;20080;-56
2022/07/25 03:08:59;;;;;;;13.63;8.90;;;;;;;21.82;62.93;100803.81;5029177;28;20112;-57
2022/07/25 03:11:25;;;;;;;9.50;8.50;;;;;;;21.80;63.12;100795.13;5024845;28;20330;-58
2022/07/25 03:13:51;;;;;;;10.32;8.55;;;;;;;21.77;62.94;100795.63;5028371;28;20037;-57
2022/07/25 03:16:16;;;;;;;10.25;8.88;;;;;;;21.77;62.88;100782.13;5027964;28;20021;-58
2022/07/25 03:18:41;;;;;;;12.63;8.93;;;;;;;21.72;62.99;100782.03;5022091;28;20033;-57
2022/07/25 03:21:06;;;;;;;10.05;8.95;;;;;;;21.68;63.31;100780.06;5026535;28;20017;-58
2022/07/25 03:23:32;;;;;;;11.60;8.75;;;;;;;21.66;63.41;100780.28;5020856;28;20017;-57
2022/07/25 03:25:58;;;;;;;13.25;9.00;;;;;;;21.65;63.77;100790.28;5027509;28;20465;-58
2022/07/25 03:28:23;;;;;;;11.68;8.85;;;;;;;21.53;64.03;100794.13;5025337;28;20180;-57
2022/07/25 03:30:49;;;;;;;9.90;8.35;;;;;;;21.53;64.03;100796.84;5026512;28;20021;-56
2022/07/25 03:33:14;;;;;;;12.02;8.70;;;;;;;21.37;63.96;100797.63;5022500;28;20029;-57
2022/07/25 03:35:39;;;;;;;24.13;9.85;;;;;;;21.18;64.24;100799.69;5023801;28;20125;-56
2022/07/25 03:38:05;;;;;;;11.50;9.07;;;;;;;21.08;64.67;100786.78;5020759;28;20091;-56
2022/07/25 03:40:30;;;;;;;12.60;8.82;;;;;;;20.93;65.16;100791.91;5025541;28;20036;-58
2022/07/25 03:42:56;;;;;;;16.55;10.23;;;;;;;20.73;65.33;100795.00;5027248;28;20018;-56
2022/07/25 03:45:21;;;;;;;13.82;9.68;;;;;;;20.82;65.39;100790.91;5023379;28;20376;-57
2022/07/25 03:47:46;;;;;;;14.38;10.32;;;;;;;20.73;65.56;100793.13;5027522;28;20025;-56
2022/07/25 03:50:12;;;;;;;13.98;10.68;;;;;;;20.76;66.31;100796.41;5022009;28;20231;-56
2022/07/25 03:52:37;;;;;;;13.55;9.18;;;;;;;20.88;66.21;100783.72;5026878;28;20402;-58
2022/07/25 03:55:07;;;;;;;13.25;9.45;;;;;;;20.85;66.19;100785.03;5026671;28;20038;-57
2022/07/25 03:57:33;;;;;;;13.20;9.75;;;;;;;20.87;66.11;100780.19;5022764;28;20036;-57
2022/07/25 03:59:58;;;;;;;11.52;9.23;;;;;;;20.89;66.27;100775.38;5027692;28;20397;-58
2022/07/25 04:02:23;;;;;;;11.40;8.90;;;;;;;20.81;66.48;100766.81;5021485;28;20142;-58
2022/07/25 04:04:48;;;;;;;14.70;9.32;;;;;;;20.90;66.49;100770.81;5031161;28;20476;-57
2022/07/25 04:07:14;;;;;;;12.98;9.10;;;;;;;20.92;66.25;100766.81;5024037;28;20036;-58
2022/07/25 04:09:39;;;;;;;10.43;8.93;;;;;;;20.97;66.13;100768.78;5025855;28;20479;-57
2022/07/25 04:12:05;;;;;;;12.77;9.20;;;;;;;20.92;66.29;100774.06;5031245;28;20529;-57
2022/07/25 04:14:30;;;;;;;12.40;9.07;;;;;;;21.04;66.35;100774.84;5021936;28;20025;-57
2022/07/25 04:16:55;;;;;;;10.45;8.82;;;;;;;21.01;66.52;100761.81;5032370;28;20024;-57
2022/07/25 04:19:20;;;;;;;12.30;8.65;;;;;;;21.01;66.72;100753.72;5023578;28;20437;-57
2022/07/25 04:21:46;;;;;;;11.63;8.75;;;;;;;21.04;66.49;100764.03;5030874;28;20036;-58
2022/07/25 04:24:11;;;;;;;10.43;7.90;;;;;;;21.01;66.76;100767.22;5024657;28;20112;-57
2022/07/25 04:26:36;;;;;;;11.80;8.05;;;;;;;21.03;65.85;100762.41;5026565;28;20036;-57
2022/07/25 04:29:02;;;;;;;10.77;7.95;;;;;;;21.04;65.24;100764.03;5025929;28;20496;-57
2022/07/25 04:31:28;;;;;;;12.65;8.20;;;;;;;20.99;64.96;100772.88;5019225;28;20040;-57
2022/07/25 04:33:53;;;;;;;10.38;8.00;;;;;;;20.97;64.48;100782.28;5023937;28;20108;-57
2022/07/25 04:36:18;;;;;;;13.02;8.15;;;;;;;20.90;64.65;100768.91;5018523;28;20029;-58
2022/07/25 04:38:44;;;;;;;10.00;7.63;;;;;;;20.87;64.50;100776.69;5021603;28;20548;-57
2022/07/25 04:41:09;;;;;;;9.32;7.43;;;;;;;20.85;64.69;100770.72;5025693;28;20104;-57
2022/07/25 04:43:35;;;;;;;11.80;7.93;;;;;;;20.87;64.66;100774.81;5024187;28;20094;-56
2022/07/25 04:46:00;;;;;;;9.88;7.57;;;;;;;20.90;64.45;100770.81;5021535;28;20033;-56
2022/07/25 04:48:26;;;;;;;10.20;7.50;;;;;;;20.89;64.41;100769.97;5021011;28;20030;-57
2022/07/25 04:50:51;;;;;;;11.30;7.50;;;;;;;20.90;63.98;100765.41;5031854;28;20029;-57
2022/07/25 04:53:16;;;;;;;9.27;7.85;;;;;;;20.91;64.42;100767.03;5020954;28;20056;-59
2022/07/25 04:55:42;;;;;;;9.48;7.65;;;;;;;20.91;64.39;100758.94;5016968;28;20511;-58
2022/07/25 04:58:07;;;;;;;10.43;7.68;;;;;;;20.91;64.36;100750.84;5024685;28;20075;-56
2022/07/25 05:00:32;;;;;;;8.82;7.50;;;;;;;20.91;64.25;100753.53;5019598;28;20027;-57
2022/07/25 05:02:58;;;;;;;9.52;7.53;;;;;;;20.96;64.58;100762.56;5022322;28;20079;-57
2022/07/25 05:05:24;;;;;;;9.98;8.20;;;;;;;20.93;64.24;100754.13;5022862;28;20112;-57
2022/07/25 05:07:54;;;;;;;13.85;7.57;;;;;;;20.92;64.47;100760.59;5033096;28;20105;-57
2022/07/25 05:10:19;;;;;;;11.88;7.50;;;;;;;20.95;64.59;100760.91;5034425;28;20044;-57
2022/07/25 05:12:45;;;;;;;13.02;7.50;;;;;;;20.92;64.47;100765.97;5026480;28;20071;-57
2022/07/25 05:15:11;;;;;;;9.63;7.53;;;;;;;20.85;64.65;100760.72;5020224;28;20049;-57
2022/07/25 05:17:36;;;;;;;11.57;7.75;;;;;;;20.88;64.59;100762.13;5020761;28;20090;-56
2022/07/25 05:20:02;;;;;;;12.77;7.50;;;;;;;20.85;64.94;100757.22;5030507;28;20094;-57
2022/07/25 05:22:27;;;;;;;13.52;7.88;;;;;;;20.86;65.09;100761.56;5030689;28;20055;-57
2022/07/25 05:24:52;;;;;;;13.35;8.18;;;;;;;20.86;65.18;100761.56;5031791;28;20029;-57
2022/07/25 05:27:17;;;;;;;14.77;8.50;;;;;;;20.84;65.03;100756.41;5035733;28;20049;-57
2022/07/25 05:29:43;;;;;;;13.27;8.38;;;;;;;20.87;65.04;100765.88;5021218;28;20498;-57
2022/07/25 05:32:08;;;;;;;11.82;8.70;;;;;;;20.85;65.29;100757.22;5023783;28;20072;-58
2022/07/25 05:34:33;;;;;;;11.65;8.40;;;;;;;20.86;65.48;100756.97;5028093;28;20323;-59
2022/07/25 05:36:59;;;;;;;11.98;8.60;;;;;;;20.84;65.31;100759.09;5025531;28;20013;-57
2022/07/25 05:39:24;;;;;;;9.80;8.77;;;;;;;20.86;65.64;100766.94;5025534;28;20030;-56
2022/07/25 05:41:49;;;;;;;13.02;8.70;;;;;;;20.86;65.77;100767.78;5026001;28;20017;-55
2022/07/25 05:44:15;;;;;;;14.90;9.63;;;;;;;20.89;65.94;100777.25;5026822;28;20036;-57
2022/07/25 05:46:40;;;;;;;13.70;9.40;;;;;;;20.89;66.21;100777.25;5023955;28;20478;-57
2022/07/25 05:49:05;;;;;;;14.05;9.88;;;;;;;20.88;66.17;100773.75;5022384;28;20025;-57
2022/07/25 05:51:31;;;;;;;13.20;9.40;;;;;;;20.78;66.11;100745.72;5022665;28;20025;-57
2022/07/25 05:53:56;;;;;;;11.65;9.40;;;;;;;20.90;66.27;100768.09;5032772;28;20104;-57
2022/07/25 05:56:21;;;;;;;11.98;8.40;;;;;;;20.93;66.66;100773.03;5034403;28;20067;-57
2022/07/25 05:58:46;;;;;;;13.85;9.73;;;;;;;20.92;66.61;100765.97;5035637;28;20021;-57
2022/07/25 06:01:13;;;;;;;13.48;9.52;;;;;;;20.91;66.69;100775.97;5030631;28;20021;-57
2022/07/25 06:03:39;;;;;;;11.52;9.13;;;;;;;20.95;66.92;100792.50;5024519;28;20036;-57
2022/07/25 06:06:09;;;;;;;14.55;10.02;;;;;;;20.93;67.18;100794.63;5026933;28;20022;-56
2022/07/25 06:08:38;;;;;;;12.68;8.90;;;;;;;20.89;67.17;100794.28;5033936;28;20109;-57
2022/07/25 06:11:04;;;;;;;15.85;10.10;;;;;;;20.90;67.21;100793.22;5027719;28;20022;-57
2022/07/25 06:13:30;;;;;;;12.23;9.48;;;;;;;20.91;67.02;100799.44;5031246;28;20510;-57
2022/07/25 06:15:56;;;;;;;15.98;9.80;;;;;;;20.90;66.95;100787.81;5028002;28;20022;-56
2022/07/25 06:18:22;;;;;;;12.80;9.75;;;;;;;20.95;67.22;100793.31;5027553;28;20028;-57
2022/07/25 06:20:48;;;;;;;13.15;9.43;;;;;;;20.95;67.04;100796.00;5025912;28;20359;-57
2022/07/25 06:23:13;;;;;;;15.65;9.65;;;;;;;;;;5027749;28;20071;-57
2022/07/25 06:25:39;;;;;;;14.43;9.45;;;;;;;21.01;67.27;100794.22;5030575;28;20510;-58
2022/07/25 06:28:04;;;;;;;13.43;9.25;;;;;;;21.02;67.02;100794.00;5033036;28;20057;-56
2022/07/25 06:30:30;;;;;;;14.57;8.90;;;;;;;21.03;66.97;100795.63;5024415;28;20117;-57
2022/07/25 06:32:55;;;;;;;12.43;8.50;;;;;;;21.02;67.20;100802.09;5024910;28;20034;-57
2022/07/25 06:35:20;;;;;;;14.95;8.65;;;;;;;21.02;67.17;100799.38;5032307;28;20013;-56
2022/07/25 06:37:46;;;;;;;11.48;8.95;;;;;;;21.04;67.56;100802.66;5030685;28;20291;-55
2022/07/25 06:40:11;;;;;;;12.65;8.07;;;;;;;21.03;67.13;100802.91;5031999;28;20048;-56
2022/07/25 06:42:38;;;;;;;9.70;7.32;;;;;;;21.07;66.89;100805.94;5028529;28;20524;-56
2022/07/25 06:45:05;;;;;;;10.85;7.00;;;;;;;21.09;66.88;100801.13;5037323;28;20057;-57
2022/07/25 06:47:30;;;;;;;7.28;6.05;;;;;;;21.09;66.72;100777.63;5027707;28;20026;-55
2022/07/25 06:49:56;;;;;;;9.55;6.55;;;;;;;21.19;67.02;100794.03;5030924;28;20048;-56
2022/07/25 06:52:21;;;;;;;7.72;5.90;;;;;;;21.23;66.73;100797.94;5033982;28;20457;-57
2022/07/25 06:54:46;;;;;;;8.82;5.72;;;;;;;21.28;65.89;100797.19;5036925;28;20664;-57
2022/07/25 06:57:11;;;;;;;11.55;5.90;;;;;;;21.30;66.12;100798.59;5034887;28;20559;-57
2022/07/25 06:59:37;;;;;;;9.77;5.70;;;;;;;21.33;65.64;100800.81;5036710;28;20115;-56
2022/07/25 07:02:02;;;;;;;7.97;5.28;;;;;;;21.34;65.67;100802.44;5033507;28;20028;-56
2022/07/25 07:04:27;;;;;;;10.20;5.18;;;;;;;21.37;65.59;100792.22;5031717;28;20026;-57
2022/07/25 07:06:53;;;;;;;9.35;5.10;;;;;;;21.40;65.70;100799.88;5027894;28;20493;-56
2022/07/25 07:09:18;;;;;;;7.68;4.93;;;;;;;21.42;65.92;100803.16;5026892;28;20399;-56
2022/07/25 07:11:43;;;;;;;9.90;4.40;;;;;;;21.46;65.57;100799.69;5028380;28;20033;-57
2022/07/25 07:14:08;;;;;;;6.78;4.50;;;;;;;21.50;65.55;100800.03;5026234;28;20493;-56
2022/07/25 07:16:35;;;;;;;9.52;4.65;;;;;;;21.47;65.27;100795.94;5026043;28;20033;-57
2022/07/25 07:19:00;;;;;;;7.78;3.80;;;;;;;21.59;65.34;100806.66;5030107;28;20029;-58
2022/07/25 07:21:26;;;;;;;6.15;3.65;;;;;;;21.65;65.46;100795.69;5031758;28;20495;-57
2022/07/25 07:23:51;;;;;;;7.85;3.78;;;;;;;21.75;65.62;100800.47;5025932;28;20028;-58
2022/07/25 07:26:16;;;;;;;8.70;3.50;;;;;;;21.83;65.31;100791.13;5027602;28;21147;-57
2022/07/25 07:28:42;;;;;;;7.45;3.67;;;;;;;21.87;65.51;100790.38;5020800;28;20030;-57
2022/07/25 07:31:07;;;;;;;8.43;3.50;;;;;;;21.93;65.76;100793.97;5027419;28;20021;-56
2022/07/25 07:33:32;;;;;;;7.70;3.10;;;;;;;21.96;65.39;100799.72;5022502;28;20092;-58
2022/07/25 07:35:59;;;;;;;8.48;3.05;;;;;;;21.98;65.30;100801.38;5032028;28;20021;-56
2022/07/25 07:38:25;;;;;;;6.82;2.72;;;;;;;21.98;65.13;100790.56;5033614;28;20100;-57
2022/07/25 07:40:51;;;;;;;7.10;2.47;;;;;;;22.03;65.30;100802.28;5037218;28;20109;-57
2022/07/25 07:43:16;;;;;;;5.05;2.25;;;;;;;22.01;64.60;100799.00;5033195;28;20037;-58
2022/07/25 07:45:42;;;;;;;3.90;2.00;;;;;;;21.99;64.22;100809.25;5031327;28;20018;-57
2022/07/25 07:48:08;;;;;;;5.80;1.90;;;;;;;21.99;64.37;100800.31;5033810;28;20064;-58
2022/07/25 07:50:34;;;;;;;4.47;2.17;;;;;;;22.01;64.46;100801.69;5028891;28;20036;-56
2022/07/25 07:52:59;;;;;;;7.55;2.28;;;;;;;22.07;65.00;100808.03;5034003;28;20056;-57
2022/07/25 07:58:22;;;;;;;4.10;2.13;;;;;;;22.23;65.01;100810.69;4986334;28;20441;-56
2022/07/25 08:00:50;;;;;;;5.53;1.90;;;;;;;22.29;65.00;100822.44;5031564;28;20022;-57
2022/07/25 08:03:18;;;;;;;5.35;1.80;;;;;;;22.30;65.08;100817.84;5035665;28;20079;-56
2022/07/25 08:05:44;;;;;;;5.38;2.00;;;;;;;22.35;65.69;100823.31;5025686;28;20034;-57
2022/07/25 08:08:11;;;;;;;7.53;1.80;;;;;;;22.40;65.83;100824.22;5029145;28;20024;-57
2022/07/25 08:10:42;;;;;;;7.63;1.80;;;;;;;22.38;66.15;100823.66;5035414;28;20025;-57
2022/07/25 08:13:20;;;;;;;6.55;1.95;;;;;;;22.46;65.88;100823.22;5023460;28;20132;-57
2022/07/25 08:15:56;;;;;;;6.07;1.58;;;;;;;22.46;66.43;100817.78;5024896;28;20578;-56
2022/07/25 08:18:22;;;;;;;7.47;1.80;;;;;;;22.49;66.71;100811.88;5023990;28;20021;-57
2022/07/25 08:20:49;;;;;;;4.93;1.73;;;;;;;22.53;66.50;100821.13;5033274;28;20040;-56
2022/07/25 08:23:14;;;;;;;8.02;1.85;;;;;;;22.62;66.55;100823.44;5022699;28;20423;-56
2022/07/25 08:25:40;;;;;;;5.65;1.55;;;;;;;22.74;66.83;100818.69;5025442;28;20033;-56
2022/07/25 08:28:06;;;;;;;4.38;1.80;;;;;;;22.82;66.85;100815.56;5022532;28;20033;-56
2022/07/25 08:30:33;;;;;;;6.43;1.65;;;;;;;22.82;65.88;100823.69;5025170;28;20037;-55
2022/07/25 08:33:00;;;;;;;4.95;1.25;;;;;;;22.84;66.06;100818.84;5022242;28;20025;-57
2022/07/25 08:35:27;;;;;;;4.75;1.40;;;;;;;23.00;66.64;100825.28;5027771;28;20048;-57
2022/07/25 08:37:53;;;;;;;6.32;1.67;;;;;;;23.12;66.43;100823.25;5023965;28;20068;-57
2022/07/25 08:40:22;;;;;;;6.10;1.38;;;;;;;23.05;65.25;100820.75;5033395;28;20107;-55
2022/07/25 08:42:50;;;;;;;5.32;1.55;;;;;;;23.16;65.68;100819.81;5024989;28;20035;-56
2022/07/25 08:45:18;;;;;;;4.00;1.50;;;;;;;23.24;65.22;100825.81;5026677;28;20164;-56
2022/07/25 08:47:45;;;;;;;2.33;1.00;;;;;;;23.20;64.16;100822.00;5027284;28;20402;-57
2022/07/25 08:50:13;;;;;;;2.20;1.30;;;;;;;23.12;63.75;100828.66;5026123;28;20271;-58
2022/07/25 08:52:38;;;;;;;6.40;1.40;;;;;;;23.05;63.41;100817.22;5027767;28;20060;-56
2022/07/25 08:55:09;;;;;;;2.13;0.98;;;;;;;23.03;63.50;100827.47;5025488;28;20063;-55
2022/07/25 08:57:36;;;;;;;6.72;1.40;;;;;;;23.01;63.42;100843.16;5029545;28;20059;-56
2022/07/25 09:00:04;;;;;;;3.17;1.30;;;;;;;23.14;63.76;100837.38;5021734;28;20075;-58
2022/07/25 09:02:29;;;;;;;5.40;1.58;;;;;;;23.25;63.49;100839.13;5022052;28;20151;-56
2022/07/25 09:04:56;;;;;;;4.85;1.30;;;;;;;23.32;63.26;100845.16;5025426;28;20084;-57
2022/07/25 09:07:34;;;;;;;4.15;1.40;;;;;;;23.43;62.75;100854.22;5020602;28;20032;-57
2022/07/25 09:10:15;;;;;;;6.30;1.45;;;;;;;23.39;62.60;100847.66;5031752;28;20036;-56
2022/07/25 09:12:49;;;;;;;5.05;1.40;;;;;;;23.31;62.40;100842.69;5026456;28;20033;-57
2022/07/25 09:15:22;;;;;;;3.20;1.40;;;;;;;23.30;62.40;100851.91;5020086;28;20454;-57
2022/07/25 09:17:49;;;;;;;4.47;1.30;;;;;;;23.32;62.50;100849.75;5022025;28;20022;-57
2022/07/25 09:20:15;;;;;;;5.55;1.67;;;;;;;23.31;62.56;100842.69;5024153;28;20086;-58
2022/07/25 09:22:44;;;;;;;3.55;1.60;;;;;;;23.36;63.06;100843.56;5022057;28;20021;-56
2022/07/25 09:25:28;;;;;;;;;;;;;;;23.52;62.05;100854.59;5025529;28;20045;-57
2022/07/25 09:27:55;;;;;;;4.50;1.50;;;;;;;23.63;62.09;100845.50;5022964;28;19913;-57
2022/07/25 09:30:20;;;;;;;5.15;1.60;;;;;;;23.65;62.29;100854.19;5027920;28;20025;-57
2022/07/25 09:32:45;;;;;;;4.40;1.83;;;;;;;23.64;61.05;100852.56;5026579;28;20079;-57
2022/07/25 09:35:11;;;;;;;6.05;2.00;;;;;;;23.63;60.36;100859.88;5029192;28;20033;-57
2022/07/25 09:37:37;;;;;;;6.95;1.90;;;;;;;23.78;60.71;100854.59;5025198;28;20018;-56
2022/07/25 09:40:12;;;;;;;6.20;2.15;;;;;;;23.78;60.37;100873.59;5028189;28;20021;-57
2022/07/25 09:42:37;;;;;;;3.95;1.90;;;;;;;23.78;60.00;100861.91;5021243;28;20055;-58
2022/07/25 09:45:10;;;;;;;5.25;1.90;;;;;;;23.94;60.24;100871.81;5028061;28;20367;-57
2022/07/25 09:47:50;;;;;;;7.45;2.20;;;;;;;24.14;59.68;100865.75;5027794;28;20041;-57
2022/07/25 09:50:17;;;;;;;4.43;1.85;;;;;;;24.29;59.29;100857.75;5023571;28;20021;-57
2022/07/25 09:52:44;;;;;;;5.95;2.08;;;;;;;24.42;58.72;100856.47;5024975;28;20092;-57
2022/07/25 09:55:10;;;;;;;6.63;2.15;;;;;;;24.28;57.76;100868.84;5022106;28;20048;-57
2022/07/25 09:57:36;;;;;;;4.32;1.80;;;;;;;24.25;58.01;100880.19;5031388;28;20037;-57
2022/07/25 10:00:03;;;;;;;4.78;2.03;;;;;;;24.21;58.03;100879.06;5023869;28;20021;-58
2022/07/25 10:02:41;;;;;;;4.65;2.20;;;;;;;24.35;58.22;100875.69;5017734;28;20026;-57
2022/07/25 10:05:15;;;;;;;9.30;2.20;;;;;;;24.60;58.14;100882.38;5022540;28;20308;-58
2022/07/25 10:07:44;;;;;;;9.13;2.45;;;;;;;24.79;57.53;100880.84;5018791;28;20030;-57
2022/07/25 10:10:24;;;;;;;6.30;2.15;;;;;;;24.99;57.08;100880.16;5023460;28;20128;-57
2022/07/25 10:13:25;;;;;;;4.75;1.95;;;;;;;25.16;56.18;100885.41;5022364;28;20287;-57
2022/07/25 10:15:51;;;;;;;3.75;1.50;;;;;;;25.11;54.28;100885.34;5026099;28;20034;-56
2022/07/25 10:18:22;;;;;;;5.88;1.60;;;;;;;25.19;54.15;100885.69;5028635;28;20017;-57
2022/07/25 10:20:51;;;;;;;7.68;1.65;;;;;;;25.20;52.93;100886.50;5032253;28;20109;-58
2022/07/25 10:23:17;;;;;;;8.02;1.58;;;;;;;25.25;52.05;100875.63;5023874;28;20304;-57
2022/07/25 10:25:43;;;;;;;9.20;1.80;;;;;;;25.29;51.20;100890.31;5023199;28;20686;-58
2022/07/25 10:28:09;;;;;;;2.90;1.60;;;;;;;25.36;51.97;100876.47;5025804;28;20454;-58
2022/07/25 10:30:36;;;;;;;4.47;1.90;;;;;;;25.38;52.09;100890.63;5024207;28;20475;-57
2022/07/25 10:33:16;;;;;;;3.88;1.40;;;;;;;25.42;51.62;100910.75;5026438;28;20036;-56
2022/07/25 10:35:42;;;;;;;4.88;1.52;;;;;;;25.25;50.97;100887.31;5029039;28;20025;-58
2022/07/25 10:38:07;;;;;;;5.32;1.83;;;;;;;25.28;51.63;100883.25;5027401;28;20414;-58
2022/07/25 10:40:39;;;;;;;3.10;1.70;;;;;;;25.21;51.54;100893.56;5028785;28;20025;-57
2022/07/25 10:43:04;;;;;;;4.93;1.50;;;;;;;25.09;52.05;100892.97;5031426;28;20082;-57
2022/07/25 10:45:37;;;;;;;3.55;1.80;;;;;;;25.18;53.03;100904.97;5028788;28;20483;-57
2022/07/25 10:48:09;;;;;;;3.83;1.80;;;;;;;25.04;52.68;100901.91;5022509;28;20033;-58
2022/07/25 10:50:49;;;;;;;4.75;2.05;;;;;;;24.80;53.07;100887.91;5027221;28;20017;-58
2022/07/25 10:53:14;;;;;;;5.43;2.03;;;;;;;24.80;53.09;100912.34;5027877;28;20368;-57
2022/07/25 10:55:39;;;;;;;4.75;1.80;;;;;;;24.82;53.63;100907.47;5029963;28;20029;-58
2022/07/25 10:58:05;;;;;;;6.82;1.98;;;;;;;24.89;54.12;100923.56;5034359;28;20065;-58
2022/07/25 11:00:32;;;;;;;8.75;2.20;;;;;;;24.91;53.80;100926.84;5024202;28;20101;-56
2022/07/25 11:02:58;;;;;;;5.82;2.20;;;;;;;24.69;53.56;100938.66;5028486;28;20021;-56
2022/07/25 11:05:24;;;;;;;6.68;2.25;;;;;;;24.53;53.79;100919.78;5025409;28;20030;-58
2022/07/25 11:07:53;;;;;;;4.35;1.95;;;;;;;24.46;54.16;100924.63;5019691;28;20030;-57
2022/07/25 11:10:26;;;;;;;6.22;2.13;;;;;;;24.34;54.87;100936.50;5026562;28;20022;-57
2022/07/25 11:12:52;;;;;;;6.65;2.00;;;;;;;24.16;54.89;100925.19;5019686;28;20029;-57
2022/07/25 11:15:22;;;;;;;7.85;2.13;;;;;;;23.89;55.83;100917.06;5038648;28;20032;-57
2022/07/25 11:17:50;;;;;;;3.85;2.20;;;;;;;23.75;55.91;100936.47;5028457;28;20036;-57
2022/07/25 11:20:16;;;;;;;5.57;2.20;;;;;;;23.77;56.20;100931.63;5026099;28;20043;-57
2022/07/25 11:22:42;;;;;;;4.22;2.17;;;;;;;23.69;55.38;100931.22;5017602;28;20029;-57